Aviation Digital Data Service (ADDS)

Output produced by METARs form (0211 UTC 24 November 2017)
found at http://www.aviationweather.gov/adds/metars/
 
EFMI 240150Z AUTO 13012KT 090V180 2300 -SHRA BR OVC003 00/00 Q1006
EFMI 240120Z AUTO 13011KT 100V180 2700 -UP BR OVC003 00/00 Q1006
EFMI 240050Z AUTO 13012KT 3100 BR OVC003 00/M00 Q1006
EFMI 240020Z AUTO 14011KT 2700 BR OVC003 00/M00 Q1007
EFMI 232320Z AUTO 14012KT 100V180 4200 BR OVC003 00/M00 Q1007
EFMI 232250Z AUTO 14011KT 100V180 7000 OVC003 M00/M00 Q1007
EFMI 232220Z AUTO 13010KT 090V160 8000 OVC003 M01/M01 Q1008
EFMI 232150Z AUTO 12010KT 8000 OVC003 M01/M02 Q1008
EFMI 232120Z AUTO 13011KT 100V160 6000 OVC003 M02/M02 Q1008
EFMI 232050Z AUTO 12011KT 100V170 7000 OVC004 M02/M02 Q1008
EFMI 232020Z AUTO 12011KT 6000 OVC004 M02/M03 Q1009
EFMI 231950Z AUTO 13011KT 2900 BR OVC004 M02/M03 Q1009
EFMI 231920Z AUTO 12012KT 070V170 3000 BR OVC005 M02/M03 Q1009
EFMI 231850Z AUTO 12013KT 100V170 4400 -SG BR OVC005 M02/M03 Q1010
EFMI 231820Z AUTO 12015KT 5000 -SG OVC006 M02/M03 Q1009
EFMI 231750Z AUTO 13014KT 100V160 7000 -SHSN OVC007 M03/M04 Q1010
EFMI 231720Z AUTO 13015G25KT 090V160 8000 OVC009 M03/M04 Q1010
EFMI 231650Z AUTO 13013KT 100V170 3600 -SHSN BR OVC010 M03/M04 Q1010
EFMI 231620Z AUTO 13014KT 9999 -SHSN OVC010 M03/M04 Q1010
EFMI 231550Z AUTO 12014KT 9999 -SHSN OVC011 M03/M05 Q1011
EFMI 231520Z AUTO 12015KT 090V160 9999 OVC011 M03/M05 Q1011
EFMI 231450Z AUTO 11015KT 070V150 9999 -SG OVC011 M03/M05 Q1011
EFMI 231420Z AUTO 12016KT 080V150 8000 -SN BKN010 OVC046 M03/M05 Q1012
EFMI 231350Z AUTO 11016KT 080V140 3000 -SN OVC008 M03/M05 Q1012
EFMI 231320Z AUTO 11014G25KT 1500 SN OVC007 M04/M05 Q1012
EFMI 231250Z AUTO 11015KT 070V140 0700 SN OVC008 M04/M05 Q1013
EFMI 231220Z AUTO 11015KT 1300 SN OVC009 M04/M05 Q1013
EFMI 231150Z AUTO 12014KT 080V150 1700 SN OVC009 M04/M05 Q1014
EFMI 231120Z AUTO 11013KT 080V150 1500 SN OVC009 M04/M05 Q1014
EFMI 231050Z AUTO 11015KT 6000 -SG OVC010 M04/M05 Q1015
EFMI 231020Z AUTO 11013KT 9999 OVC010 M04/M06 Q1015
EFMI 230950Z AUTO 12013KT 090V150 9999 OVC010 M04/M06 Q1016
EFMI 230920Z AUTO 11013KT 9999 OVC011 M04/M06 Q1016
EFMI 230850Z AUTO 11013KT 080V150 9999 OVC011 M04/M06 Q1016
EFMI 230820Z AUTO 13013KT 090V170 9999 OVC009 M04/M06 Q1017
EFMI 230750Z AUTO 12011KT 9999 OVC010 M04/M06 Q1017
EFMI 230720Z AUTO 10012KT 060V140 9999 OVC011 M04/M06 Q1017
EFMI 230650Z AUTO 10011KT 070V140 9999 OVC012 M04/M06 Q1017
EFMI 230620Z AUTO 10011KT 070V140 9999 OVC012 M05/M06 Q1017
EFMI 230550Z AUTO 09011KT 050V130 9999 OVC012 M05/M07 Q1017
EFMI 230520Z AUTO 10011KT 9999 OVC013 M05/M07 Q1017
EFMI 230450Z AUTO 10010KT 060V130 9999 OVC013 M05/M07 Q1018
EFMI 230420Z AUTO 10010KT 9999 OVC014 M05/M08 Q1018
EFMI 230350Z AUTO 10011KT 9999 OVC015 M05/M08 Q1018
EFMI 230320Z AUTO 09011KT 9999 OVC015 M06/M08 Q1018
EFMI 230250Z AUTO 09012KT 060V130 9999 BKN013 M06/M08 Q1019
EFMI 230220Z AUTO 10009KT 050V130 9999 OVC013 M06/M08 Q1019
EFMI 230150Z AUTO 11013KT 9999 OVC013 M06/M08 Q1019
EFMI 230120Z AUTO 10012KT 060V130 9999 OVC013 M06/M08 Q1019
EFMI 230050Z AUTO 11009KT 080V150 9999 OVC013 M06/M08 Q1019
EFMI 230020Z AUTO 09010KT 060V120 9999 OVC014 M05/M08 Q1019
EFMI 222320Z AUTO 09009KT 040V140 9999 OVC014 M05/M08 Q1019
EFMI 222250Z AUTO 10009KT 060V130 9999 OVC014 M05/M07 Q1019
EFMI 222220Z AUTO 11009KT 9999 OVC014 M05/M08 Q1019
EFMI 222150Z AUTO 10007KT 060V130 9999 OVC013 M05/M07 Q1019
EFMI 222120Z AUTO 11007KT 9999 OVC012 M05/M07 Q1019
EFMI 222050Z AUTO 07007KT 340V110 9999 OVC012 M05/M07 Q1019
EFMI 222020Z AUTO 10009KT 9999 OVC011 M05/M07 Q1019
EFMI 221950Z AUTO 07005KT 010V130 9999 OVC011 M05/M07 Q1019
EFMI 221920Z AUTO 07008KT 020V110 9999 OVC011 M06/M08 Q1019
EFMI 221850Z AUTO 07007KT 020V120 9999 OVC011 M06/M08 Q1019
EFMI 221820Z AUTO 08008KT 040V120 9999 OVC009 M06/M08 Q1019
EFMI 221750Z AUTO 07005KT 360V110 9999 OVC009 M06/M08 Q1019
EFMI 221720Z AUTO 07005KT 360V110 9999 OVC009 M06/M08 Q1019
EFMI 221650Z AUTO 06005KT 360V100 9999 OVC009 M06/M08 Q1019
EFMI 221620Z AUTO 06004KT 340V130 9999 OVC009 M06/M08 Q1019
EFMI 221550Z AUTO 06003KT 9999 OVC009 M06/M08 Q1019
EFMI 221520Z AUTO 06006KT 350V130 9999 OVC009 M06/M08 Q1018
EFMI 221450Z AUTO 06005KT 320V110 9999 OVC010 M06/M07 Q1018
EFMI 221420Z AUTO 07008KT 350V110 9999 BKN011 M06/M08 Q1018